createdAt,value
2023-04-14T00:02:15.593Z,-11172.03
2023-04-14T00:05:22.322Z,-11173.56
2023-04-14T00:08:29.092Z,-11175.38
2023-04-14T00:11:36.696Z,-11179.75
2023-04-14T00:14:43.719Z,-11169.78
2023-04-14T00:17:51.110Z,-11164.72
2023-04-14T00:20:57.252Z,-11163.31
2023-04-14T00:24:03.335Z,-11172.31
2023-04-14T00:27:11.260Z,-11171.75
2023-04-14T00:30:17.327Z,-11173.84
2023-04-14T00:33:23.612Z,-11175.94
2023-04-14T00:36:29.673Z,-11169.78
2023-04-14T00:39:35.832Z,-11167.66
2023-04-14T00:42:47.148Z,-11165.97
2023-04-14T00:45:53.722Z,-11170.34
2023-04-14T00:48:59.856Z,-11166.13
2023-04-14T00:52:07.549Z,-11159.38
2023-04-14T00:55:13.846Z,-11165.41
2023-04-14T00:58:21.687Z,-11162.19
2023-04-14T01:01:29.316Z,-11160.78
2023-04-14T01:04:52.209Z,-11165.00
2023-04-14T01:08:00.167Z,-11163.31
2023-04-14T01:11:16.136Z,-11132.38
2023-04-14T01:14:37.642Z,-11120.03
2023-04-14T01:17:51.215Z,-11146.72
2023-04-14T01:21:03.914Z,-11136.88
2023-04-14T01:24:51.727Z,-11147.28
2023-04-14T01:28:12.004Z,-11155.28
2023-04-14T01:31:26.986Z,-11155.44
2023-04-14T01:34:37.902Z,-11153.19
2023-04-14T01:37:48.870Z,-11157.69
2023-04-14T01:40:59.184Z,-11155.44
2023-04-14T01:44:07.912Z,-11145.59
2023-04-14T01:47:19.151Z,-11157.25
2023-04-14T01:50:26.586Z,-11139.13
2023-04-14T01:53:34.274Z,-11149.25
2023-04-14T01:56:42.290Z,-11139.69
2023-04-14T01:59:49.964Z,-11146.84
2023-04-14T02:02:58.537Z,-11149.94
2023-04-14T02:06:06.406Z,-11145.59
2023-04-14T02:09:13.995Z,-11125.50
2023-04-14T02:12:22.429Z,-11129.88
2023-04-14T02:15:29.333Z,-11122.28
2023-04-14T02:18:38.968Z,-11134.78
2023-04-14T02:21:46.482Z,-11140.53
2023-04-14T02:24:55.344Z,-11131.97
2023-04-14T02:28:05.154Z,-11132.09
2023-04-14T02:31:16.797Z,-11130.28
2023-04-14T02:34:29.676Z,-11136.47
2023-04-14T02:37:45.252Z,-11131.53
2023-04-14T02:40:52.433Z,-11148.81
2023-04-14T02:44:05.864Z,-11139.13
2023-04-14T02:47:15.016Z,-11137.31
2023-04-14T02:50:24.642Z,-11126.34
2023-04-14T02:53:31.391Z,-11135.47
2023-04-14T02:56:37.780Z,-11137.31
2023-04-14T02:59:47.122Z,-11130.13
2023-04-14T03:02:54.611Z,-11129.59
2023-04-14T03:06:02.386Z,-11142.22
2023-04-14T03:09:08.973Z,-11127.34
2023-04-14T03:12:16.119Z,-11145.59
2023-04-14T03:15:23.980Z,-11138.28
2023-04-14T03:18:32.254Z,-11142.50
2023-04-14T03:21:40.731Z,-11136.47
2023-04-14T03:24:47.454Z,-11138.44
2023-04-14T03:27:55.729Z,-11152.34
2023-04-14T03:31:06.512Z,-11126.22
2023-04-14T03:34:15.514Z,-11136.19
2023-04-14T03:37:27.510Z,-11118.91
2023-04-14T03:40:38.562Z,-11124.25
2023-04-14T03:43:46.807Z,-11136.03
2023-04-14T03:46:54.664Z,-11123.41
2023-04-14T03:50:04.536Z,-11141.94
2023-04-14T03:53:14.466Z,-11149.94
2023-04-14T03:56:21.372Z,-11144.06
2023-04-14T03:59:29.648Z,-11149.81
2023-04-14T04:02:37.413Z,-11150.66
2023-04-14T04:05:45.328Z,-11150.09
2023-04-14T04:08:55.640Z,-11154.88
2023-04-14T04:12:04.636Z,-11130.13
2023-04-14T04:15:11.521Z,-11120.03
2023-04-14T04:18:19.577Z,-11136.31
2023-04-14T04:21:30.083Z,-11143.22
2023-04-14T04:24:40.477Z,-11152.91
2023-04-14T04:27:47.722Z,-11151.78
2023-04-14T04:30:56.182Z,-11128.59
2023-04-14T04:34:04.319Z,-11138.56
2023-04-14T04:37:12.079Z,-11161.34
2023-04-14T04:40:19.925Z,-11159.50
2023-04-14T04:43:26.185Z,-11157.41
2023-04-14T04:46:49.902Z,-11157.53
2023-04-14T04:49:56.600Z,-11162.19
2023-04-14T04:53:02.931Z,-11159.94
2023-04-14T04:56:10.666Z,-11170.91
2023-04-14T04:59:17.093Z,-11185.94
2023-04-14T05:02:23.467Z,-11179.47
2023-04-14T05:05:29.757Z,-11187.19
2023-04-14T05:08:35.991Z,-11181.28
2023-04-14T05:11:43.552Z,-11190.72
2023-04-14T05:14:49.624Z,-11183.81
2023-04-14T05:17:55.853Z,-11190.56
2023-04-14T05:21:05.574Z,-11188.19
2023-04-14T05:24:11.675Z,-11194.78
2023-04-14T05:27:19.097Z,-11189.72
2023-04-14T05:30:26.619Z,-11184.38
2023-04-14T05:33:32.641Z,-11204.34
2023-04-14T05:36:38.690Z,-11212.09
2023-04-14T05:39:45.060Z,-11228.97
2023-04-14T05:43:11.634Z,-11222.50
2023-04-14T05:46:17.999Z,-11249.09
2023-04-14T05:49:24.637Z,-11262.88
2023-04-14T05:52:31.017Z,-11261.47
2023-04-14T05:55:37.234Z,-11274.41
2023-04-14T05:58:44.737Z,-11280.88
2023-04-14T06:01:51.709Z,-11276.25
2023-04-14T06:04:59.860Z,-11265.84
2023-04-14T06:08:06.280Z,-11269.63
2023-04-14T06:11:13.588Z,-11271.59
2023-04-14T06:14:21.182Z,-11259.78
2023-04-14T06:17:28.240Z,-11263.88
2023-04-14T06:20:36.297Z,-11273.56
2023-04-14T06:23:42.476Z,-11247.13
2023-04-14T06:26:49.165Z,-11249.66
2023-04-14T06:30:00.258Z,-11244.88
2023-04-14T06:33:06.387Z,-11245.84
2023-04-14T06:36:13.940Z,-11234.75
2023-04-14T06:39:21.235Z,-11232.19
2023-04-14T06:42:27.526Z,-11234.47
2023-04-14T06:45:35.242Z,-11235.03
2023-04-14T06:48:41.711Z,-11235.44
2023-04-14T06:51:48.041Z,-11237.84
2023-04-14T06:54:54.344Z,-11245.44
2023-04-14T06:58:00.431Z,-11259.34
2023-04-14T07:01:08.032Z,-11273.84
2023-04-14T07:04:15.624Z,-11280.31
2023-04-14T07:07:21.819Z,-11286.66
2023-04-14T07:10:27.991Z,-11288.78
2023-04-14T07:13:34.578Z,-11282.00
2023-04-14T07:16:41.975Z,-11306.09
2023-04-14T07:19:48.461Z,-11308.47
2023-04-14T07:22:54.438Z,-11332.28
2023-04-14T07:26:01.619Z,-11344.25
2023-04-14T07:29:07.943Z,-11354.94
2023-04-14T07:32:16.091Z,-11353.53
2023-04-14T07:35:22.516Z,-11377.50
2023-04-14T07:38:28.750Z,-11393.56
2023-04-14T07:41:34.931Z,-11386.78
2023-04-14T07:44:41.351Z,-11366.94
2023-04-14T07:47:49.357Z,-11394.97
2023-04-14T07:50:55.925Z,-11423.72
2023-04-14T07:54:02.711Z,-11427.66
2023-04-14T07:57:10.988Z,-11403.72
2023-04-14T08:00:17.831Z,-11391.31
2023-04-14T08:03:25.674Z,-11420.34
2023-04-14T08:06:32.147Z,-11409.63
2023-04-14T08:09:38.265Z,-11411.47
2023-04-14T08:12:44.487Z,-11421.47
2023-04-14T08:15:50.822Z,-11391.31
2023-04-14T08:18:58.390Z,-11387.34
2023-04-14T08:22:04.430Z,-11401.03
2023-04-14T08:25:12.216Z,-11388.06
2023-04-14T08:28:18.613Z,-11373.69
2023-04-14T08:31:25.843Z,-11365.94
2023-04-14T08:34:33.821Z,-11371.72
2023-04-14T08:37:40.314Z,-11378.63
2023-04-14T08:40:49.014Z,-11370.88
2023-04-14T08:43:55.393Z,-11380.59
2023-04-14T08:47:02.002Z,-11376.22
2023-04-14T08:50:16.869Z,-11363.13
2023-04-14T08:53:27.520Z,-11360.31
2023-04-14T08:56:38.300Z,-11361.28
2023-04-14T08:59:45.709Z,-11365.53
2023-04-14T09:02:52.876Z,-11374.41
2023-04-14T09:06:01.715Z,-11386.22
2023-04-14T09:09:08.153Z,-11373.97
2023-04-14T09:12:17.310Z,-11381.59
2023-04-14T09:15:25.560Z,-11376.66
2023-04-14T09:18:34.873Z,-11375.25
2023-04-14T09:21:52.525Z,-11371.56
2023-04-14T09:25:01.113Z,-11376.66
2023-04-14T09:28:07.858Z,-11366.78
2023-04-14T09:31:14.686Z,-11366.50
2023-04-14T09:34:22.264Z,-11374.81
2023-04-14T09:37:43.704Z,-11367.22
2023-04-14T09:40:50.115Z,-11364.69
2023-04-14T09:43:56.474Z,-11362.56
2023-04-14T09:47:05.224Z,-11365.25
2023-04-14T09:50:12.276Z,-11365.66
2023-04-14T09:53:27.190Z,-11388.19
2023-04-14T09:56:33.344Z,-11388.91
2023-04-14T09:59:40.718Z,-11385.66
2023-04-14T10:02:51.530Z,-11427.38
2023-04-14T10:05:57.639Z,-11440.06
2023-04-14T10:09:06.090Z,-11436.13
2023-04-14T10:12:13.540Z,-11421.19
2023-04-14T10:15:19.639Z,-11448.53
2023-04-14T10:18:25.716Z,-11456.72
2023-04-14T10:21:32.035Z,-11478.72
2023-04-14T10:24:41.844Z,-11493.09
2023-04-14T10:27:49.721Z,-11499.31
2023-04-14T10:30:57.566Z,-11476.31
2023-04-14T10:34:09.122Z,-11481.25
2023-04-14T10:37:16.470Z,-11495.91
2023-04-14T10:40:24.402Z,-11517.34
2023-04-14T10:43:30.772Z,-11512.41
2023-04-14T10:46:44.927Z,-11549.53
2023-04-14T10:49:51.074Z,-11544.16
2023-04-14T10:52:59.020Z,-11557.56
2023-04-14T10:56:07.480Z,-11527.81
2023-04-14T10:59:13.979Z,-11545.00
2023-04-14T11:02:25.035Z,-11580.84
2023-04-14T11:05:33.383Z,-11578.03
2023-04-14T11:08:39.760Z,-11578.19
2023-04-14T11:11:49.547Z,-11573.09
2023-04-14T11:15:03.895Z,-11544.59
2023-04-14T11:18:13.823Z,-11547.56
2023-04-14T11:21:20.509Z,-11564.50
2023-04-14T11:24:27.632Z,-11581.16
2023-04-14T11:27:36.276Z,-11534.56
2023-04-14T11:30:44.256Z,-11563.50
2023-04-14T11:33:51.070Z,-11564.63
2023-04-14T11:36:58.039Z,-11569.56
2023-04-14T11:40:05.666Z,-11555.47
2023-04-14T11:43:13.312Z,-11547.28
2023-04-14T11:46:22.245Z,-11567.19
2023-04-14T11:49:36.723Z,-11553.19
2023-04-14T11:52:46.252Z,-11568.44
2023-04-14T11:55:54.085Z,-11559.41
2023-04-14T11:59:03.239Z,-11582.00
2023-04-14T12:02:17.540Z,-11583.25
2023-04-14T12:05:30.512Z,-11594.84
2023-04-14T12:08:37.092Z,-11566.59
2023-04-14T12:11:43.412Z,-11563.50
2023-04-14T12:14:51.554Z,-11527.81
2023-04-14T12:17:58.517Z,-11547.97
2023-04-14T12:21:08.796Z,-11580.28
2023-04-14T12:24:17.294Z,-11569.56
2023-04-14T12:27:24.760Z,-11531.31
2023-04-14T12:30:32.536Z,-11486.31
2023-04-14T12:33:39.100Z,-11441.19
2023-04-14T12:36:52.213Z,-11386.78
2023-04-14T12:40:01.079Z,-11374.81
2023-04-14T12:43:08.383Z,-11351.28
2023-04-14T12:46:26.016Z,-11362.28
2023-04-14T12:49:39.939Z,-11338.91
2023-04-14T12:52:46.446Z,-11315.25
2023-04-14T12:56:07.210Z,-11305.38
2023-04-14T12:59:14.877Z,-11278.78
2023-04-14T13:02:23.386Z,-11266.69
2023-04-14T13:05:30.121Z,-11279.19
2023-04-14T13:08:36.549Z,-11256.69
2023-04-14T13:11:44.384Z,-11301.44
2023-04-14T13:14:50.869Z,-11293.00
2023-04-14T13:17:58.623Z,-11275.69
2023-04-14T13:21:05.366Z,-11247.25
2023-04-14T13:24:11.748Z,-11242.47
2023-04-14T13:27:18.339Z,-11238.25
2023-04-14T13:30:24.557Z,-11227.28
2023-04-14T13:33:32.205Z,-11226.28
2023-04-14T13:36:38.801Z,-11217.00
2023-04-14T13:39:45.093Z,-11218.97
2023-04-14T13:42:51.185Z,-11203.78
2023-04-14T13:45:59.250Z,-11206.31
2023-04-14T13:49:07.192Z,-11201.53
2023-04-14T13:52:13.601Z,-11197.03
2023-04-14T13:55:20.451Z,-11195.63
2023-04-14T13:58:27.029Z,-11193.66
2023-04-14T14:01:33.514Z,-11195.06
2023-04-14T14:04:41.359Z,-11174.53
2023-04-14T14:07:47.619Z,-11162.47
2023-04-14T14:10:54.601Z,-11178.19
2023-04-14T14:14:01.740Z,-11186.06
2023-04-14T14:17:08.472Z,-11177.78
2023-04-14T14:20:16.389Z,-11190.56
2023-04-14T14:23:22.822Z,-11179.03
2023-04-14T14:26:29.265Z,-11173.16
2023-04-14T14:29:36.001Z,-11177.91
2023-04-14T14:32:42.503Z,-11167.53
2023-04-14T14:35:51.116Z,-11187.75
2023-04-14T14:38:57.956Z,-11193.25
2023-04-14T14:42:04.704Z,-11187.47
2023-04-14T14:45:12.098Z,-11192.81
2023-04-14T14:48:18.375Z,-11201.41
2023-04-14T14:51:27.836Z,-11202.09
2023-04-14T14:54:34.385Z,-11216.44
2023-04-14T14:57:41.266Z,-11211.53
2023-04-14T15:00:48.095Z,-11215.19
2023-04-14T15:03:55.893Z,-11216.16
2023-04-14T15:07:03.742Z,-11222.63
2023-04-14T15:10:10.785Z,-11216.16
2023-04-14T15:13:17.379Z,-11214.91
2023-04-14T15:16:23.521Z,-11218.84
2023-04-14T15:19:29.840Z,-11222.06
2023-04-14T15:22:37.889Z,-11221.09
2023-04-14T15:25:44.181Z,-11217.84
2023-04-14T15:28:50.438Z,-11219.81
2023-04-14T15:31:56.642Z,-11222.91
2023-04-14T15:35:02.973Z,-11219.25
2023-04-14T15:38:10.619Z,-11215.31
2023-04-14T15:41:17.211Z,-11228.41
2023-04-14T15:44:24.186Z,-11224.88
2023-04-14T15:47:31.816Z,-11217.44
2023-04-14T15:50:44.595Z,-11223.06
2023-04-14T15:53:52.992Z,-11226.28
2023-04-14T15:56:59.112Z,-11220.38
2023-04-14T16:00:07.759Z,-11229.09
2023-04-14T16:03:14.959Z,-11227.41
2023-04-14T16:06:21.579Z,-11228.25
2023-04-14T16:09:29.372Z,-11230.22
2023-04-14T16:12:36.756Z,-11226.84
2023-04-14T16:15:42.889Z,-11223.19
2023-04-14T16:18:49.400Z,-11221.94
2023-04-14T16:21:58.626Z,-11228.13
2023-04-14T16:25:07.506Z,-11226.72
2023-04-14T16:28:13.580Z,-11235.44
2023-04-14T16:31:19.734Z,-11231.63
2023-04-14T16:34:25.998Z,-11226.84
2023-04-14T16:37:32.600Z,-11238.09
2023-04-14T16:40:41.470Z,-11226.16
2023-04-14T16:43:47.837Z,-11227.28
2023-04-14T16:46:54.158Z,-11233.19
2023-04-14T16:50:00.631Z,-11228.81
2023-04-14T16:53:06.849Z,-11229.37
2023-04-14T16:56:14.417Z,-11223.75
2023-04-14T16:59:20.658Z,-11226.00
2023-04-14T17:02:27.245Z,-11226.00
2023-04-14T17:05:33.837Z,-11224.31
2023-04-14T17:08:40.554Z,-11226.56
2023-04-14T17:11:48.882Z,-11226.56
2023-04-14T17:14:55.149Z,-11221.38
2023-04-14T17:18:01.565Z,-11215.88
2023-04-14T17:21:08.010Z,-11213.91
2023-04-14T17:24:14.803Z,-11214.47
2023-04-14T17:27:23.115Z,-11209.84
2023-04-14T17:30:30.125Z,-11212.22
2023-04-14T17:33:36.483Z,-11210.53
2023-04-14T17:36:43.086Z,-11220.94
2023-04-14T17:39:50.167Z,-11217.16
2023-04-14T17:42:58.689Z,-11210.69
2023-04-14T17:46:05.694Z,-11213.06
2023-04-14T17:49:11.778Z,-11208.56
2023-04-14T17:52:18.226Z,-11206.03
2023-04-14T17:55:24.395Z,-11204.06
2023-04-14T17:58:32.756Z,-11211.81
2023-04-14T18:01:39.023Z,-11216.72
2023-04-14T18:04:45.697Z,-11205.91
2023-04-14T18:07:52.157Z,-11202.53
2023-04-14T18:11:00.024Z,-11210.13
2023-04-14T18:14:08.702Z,-11210.81
2023-04-14T18:17:15.426Z,-11218.13
2023-04-14T18:20:25.793Z,-11211.94
2023-04-14T18:23:32.190Z,-11211.66
2023-04-14T18:26:38.640Z,-11212.78
2023-04-14T18:29:46.551Z,-11210.97
2023-04-14T18:32:53.864Z,-11211.66
2023-04-14T18:36:00.765Z,-11204.06
2023-04-14T18:39:07.960Z,-11206.59
2023-04-14T18:42:15.522Z,-11206.59
2023-04-14T18:45:23.499Z,-11208.84
2023-04-14T18:48:30.243Z,-11206.47
2023-04-14T18:51:36.393Z,-11211.09
2023-04-14T18:54:42.968Z,-11206.88
2023-04-14T18:57:49.616Z,-11208.28
2023-04-14T19:00:57.781Z,-11203.78
2023-04-14T19:04:04.152Z,-11200.56
2023-04-14T19:07:10.438Z,-11205.47
2023-04-14T19:10:16.478Z,-11202.81
2023-04-14T19:13:22.460Z,-11202.94
2023-04-14T19:16:30.116Z,-11196.34
2023-04-14T19:19:36.583Z,-11199.28
2023-04-14T19:22:42.552Z,-11196.34
2023-04-14T19:25:48.867Z,-11196.34
2023-04-14T19:28:58.671Z,-11198.87
2023-04-14T19:32:06.719Z,-11191.69
2023-04-14T19:35:13.245Z,-11197.19
2023-04-14T19:38:20.394Z,-11198.31
2023-04-14T19:41:26.400Z,-11190.28
2023-04-14T19:44:34.449Z,-11164.56
2023-04-14T19:47:42.488Z,-11162.47
2023-04-14T19:50:53.270Z,-11180.44
2023-04-14T19:54:01.151Z,-11186.06
2023-04-14T19:57:08.632Z,-11182.97
2023-04-14T20:00:16.882Z,-11187.06
2023-04-14T20:03:25.446Z,-11181.00
2023-04-14T20:06:32.945Z,-11182.69
2023-04-14T20:09:44.894Z,-11182.41
2023-04-14T20:12:51.875Z,-11178.75
2023-04-14T20:15:58.664Z,-11175.09
2023-04-14T20:19:06.551Z,-11172.03
2023-04-14T20:22:13.542Z,-11175.81
2023-04-14T20:25:19.890Z,-11181.84
2023-04-14T20:28:26.735Z,-11180.31
2023-04-14T20:31:33.298Z,-11179.31
2023-04-14T20:34:40.907Z,-11171.75
2023-04-14T20:37:47.669Z,-11174.25
2023-04-14T20:40:55.304Z,-11175.09
2023-04-14T20:44:01.915Z,-11173.97
2023-04-14T20:47:08.466Z,-11170.91
2023-04-14T20:50:16.821Z,-11176.22
2023-04-14T20:53:26.693Z,-11173.56
2023-04-14T20:56:34.219Z,-11175.38
2023-04-14T20:59:40.753Z,-11176.94
2023-04-14T21:02:48.887Z,-11168.94
2023-04-14T21:05:56.761Z,-11167.81
2023-04-14T21:09:03.445Z,-11163.31
2023-04-14T21:12:14.301Z,-11153.75
2023-04-14T21:15:48.361Z,-11144.06
2023-04-14T21:18:49.337Z,-11161.63
2023-04-14T21:21:56.661Z,-11142.66
2023-04-14T21:25:03.073Z,-11138.72
2023-04-14T21:28:09.347Z,-11153.47
2023-04-14T21:31:15.964Z,-11158.81
2023-04-14T21:34:22.481Z,-11150.22
2023-04-14T21:37:30.473Z,-11142.22
2023-04-14T21:40:37.001Z,-11143.91
2023-04-14T21:43:43.209Z,-11156.13
2023-04-14T21:57:48.574Z,-11139.13
2023-04-14T22:00:48.287Z,-11147.28
2023-04-14T22:03:56.038Z,-11139.41
2023-04-14T22:07:03.586Z,-11141.09
2023-04-14T22:10:10.541Z,-11143.91
2023-04-14T22:13:18.212Z,-11131.69
2023-04-14T22:16:25.593Z,-11147.28
2023-04-14T22:19:32.018Z,-11131.97
2023-04-14T22:22:38.405Z,-11129.44
2023-04-14T22:25:44.869Z,-11137.88
2023-04-14T22:28:52.887Z,-11131.81
2023-04-14T22:31:58.856Z,-11132.66
2023-04-14T22:35:05.411Z,-11139.97
2023-04-14T22:38:12.219Z,-11137.44
2023-04-14T22:41:19.778Z,-11146.16
2023-04-14T22:44:27.528Z,-11126.22
2023-04-14T22:47:34.155Z,-11127.19
2023-04-14T22:50:40.573Z,-11133.38
2023-04-14T22:53:47.004Z,-11151.91
2023-04-14T22:56:53.849Z,-11133.09
2023-04-14T23:00:09.094Z,-11127.91
2023-04-14T23:03:15.756Z,-11147.56
2023-04-14T23:06:23.010Z,-11139.69
2023-04-14T23:09:30.668Z,-11130.97
2023-04-14T23:12:37.513Z,-11137.44
2023-04-14T23:15:45.481Z,-11149.81
2023-04-14T23:18:53.120Z,-11130.69
2023-04-14T23:21:59.019Z,-11128.03
2023-04-14T23:25:05.288Z,-11143.91
2023-04-14T23:28:12.485Z,-11151.63
2023-04-14T23:31:19.927Z,-11147.41
2023-04-14T23:34:26.234Z,-11154.03
2023-04-14T23:37:32.444Z,-11155.84
2023-04-14T23:40:38.686Z,-11156.84
2023-04-14T23:43:46.246Z,-11159.09
2023-04-14T23:46:54.011Z,-11159.78
2023-04-14T23:50:00.664Z,-11153.75
2023-04-14T23:53:06.930Z,-11150.66
2023-04-14T23:56:13.220Z,-11136.88
2023-04-14T23:59:19.372Z,-11143.34
